sensor_id;sensor_type;location;lat;lon;timestamp;temperature;humidity
75927;DHT22;64605;48.296;16.416;2023-03-25T00:00:17;15.30;55.30
75927;DHT22;64605;48.296;16.416;2023-03-25T00:02:50;15.30;54.80
75927;DHT22;64605;48.296;16.416;2023-03-25T00:05:19;15.30;55.40
75927;DHT22;64605;48.296;16.416;2023-03-25T00:07:48;15.30;55.60
75927;DHT22;64605;48.296;16.416;2023-03-25T00:10:14;15.30;55.60
75927;DHT22;64605;48.296;16.416;2023-03-25T00:12:40;15.30;55.90
75927;DHT22;64605;48.296;16.416;2023-03-25T00:15:08;15.20;55.70
75927;DHT22;64605;48.296;16.416;2023-03-25T00:17:35;15.20;55.90
75927;DHT22;64605;48.296;16.416;2023-03-25T00:20:06;15.20;55.80
75927;DHT22;64605;48.296;16.416;2023-03-25T00:22:35;15.20;55.90
75927;DHT22;64605;48.296;16.416;2023-03-25T00:25:09;15.20;55.90
75927;DHT22;64605;48.296;16.416;2023-03-25T00:27:35;15.20;55.90
75927;DHT22;64605;48.296;16.416;2023-03-25T00:30:01;15.20;55.60
75927;DHT22;64605;48.296;16.416;2023-03-25T00:32:27;15.20;55.50
75927;DHT22;64605;48.296;16.416;2023-03-25T00:34:54;15.10;55.80
75927;DHT22;64605;48.296;16.416;2023-03-25T00:37:20;15.10;55.80
75927;DHT22;64605;48.296;16.416;2023-03-25T00:39:46;15.10;55.70
75927;DHT22;64605;48.296;16.416;2023-03-25T00:42:16;15.00;54.90
75927;DHT22;64605;48.296;16.416;2023-03-25T00:44:42;15.00;55.10
75927;DHT22;64605;48.296;16.416;2023-03-25T00:47:08;15.00;54.90
75927;DHT22;64605;48.296;16.416;2023-03-25T00:49:36;14.90;55.90
75927;DHT22;64605;48.296;16.416;2023-03-25T00:52:02;15.00;55.10
75927;DHT22;64605;48.296;16.416;2023-03-25T00:54:27;14.90;54.80
75927;DHT22;64605;48.296;16.416;2023-03-25T00:56:53;14.90;54.50
75927;DHT22;64605;48.296;16.416;2023-03-25T00:59:19;14.90;54.50
75927;DHT22;64605;48.296;16.416;2023-03-25T01:01:44;14.90;54.60
75927;DHT22;64605;48.296;16.416;2023-03-25T01:04:11;14.90;54.60
75927;DHT22;64605;48.296;16.416;2023-03-25T01:06:39;14.90;54.70
75927;DHT22;64605;48.296;16.416;2023-03-25T01:09:16;14.90;54.40
75927;DHT22;64605;48.296;16.416;2023-03-25T01:11:44;14.90;54.30
75927;DHT22;64605;48.296;16.416;2023-03-25T01:14:14;14.90;54.40
75927;DHT22;64605;48.296;16.416;2023-03-25T01:16:41;14.90;54.40
75927;DHT22;64605;48.296;16.416;2023-03-25T01:19:08;14.90;54.40
75927;DHT22;64605;48.296;16.416;2023-03-25T01:21:34;14.90;54.30
75927;DHT22;64605;48.296;16.416;2023-03-25T01:24:02;14.90;54.40
75927;DHT22;64605;48.296;16.416;2023-03-25T01:26:28;14.90;54.50
75927;DHT22;64605;48.296;16.416;2023-03-25T01:28:53;14.80;54.50
75927;DHT22;64605;48.296;16.416;2023-03-25T01:31:19;14.80;54.60
75927;DHT22;64605;48.296;16.416;2023-03-25T01:33:48;14.80;54.80
75927;DHT22;64605;48.296;16.416;2023-03-25T01:36:13;14.80;54.40
75927;DHT22;64605;48.296;16.416;2023-03-25T01:38:40;14.80;54.60
75927;DHT22;64605;48.296;16.416;2023-03-25T01:41:07;14.80;54.40
75927;DHT22;64605;48.296;16.416;2023-03-25T01:43:33;14.80;54.70
75927;DHT22;64605;48.296;16.416;2023-03-25T01:45:59;14.80;54.60
75927;DHT22;64605;48.296;16.416;2023-03-25T01:48:33;14.80;54.90
75927;DHT22;64605;48.296;16.416;2023-03-25T01:51:23;14.80;54.90
75927;DHT22;64605;48.296;16.416;2023-03-25T01:53:51;14.80;54.80
75927;DHT22;64605;48.296;16.416;2023-03-25T01:56:27;14.80;54.80
75927;DHT22;64605;48.296;16.416;2023-03-25T01:58:58;14.80;55.10
75927;DHT22;64605;48.296;16.416;2023-03-25T02:01:25;14.80;55.10
75927;DHT22;64605;48.296;16.416;2023-03-25T02:03:52;14.80;54.90
75927;DHT22;64605;48.296;16.416;2023-03-25T02:06:21;14.70;54.70
75927;DHT22;64605;48.296;16.416;2023-03-25T02:08:54;14.80;54.80
75927;DHT22;64605;48.296;16.416;2023-03-25T02:11:21;14.70;54.80
75927;DHT22;64605;48.296;16.416;2023-03-25T02:13:50;14.70;54.80
75927;DHT22;64605;48.296;16.416;2023-03-25T02:31:12;14.70;55.60
75927;DHT22;64605;48.296;16.416;2023-03-25T02:33:50;14.80;55.20
75927;DHT22;64605;48.296;16.416;2023-03-25T02:39:21;14.80;55.20
75927;DHT22;64605;48.296;16.416;2023-03-25T02:41:56;14.70;55.00
75927;DHT22;64605;48.296;16.416;2023-03-25T02:47:17;14.80;55.10
75927;DHT22;64605;48.296;16.416;2023-03-25T02:49:47;14.80;55.60
75927;DHT22;64605;48.296;16.416;2023-03-25T02:52:35;14.80;55.40
75927;DHT22;64605;48.296;16.416;2023-03-25T02:55:03;14.80;55.20
75927;DHT22;64605;48.296;16.416;2023-03-25T02:57:32;14.80;54.90
75927;DHT22;64605;48.296;16.416;2023-03-25T03:00:00;14.80;55.30
75927;DHT22;64605;48.296;16.416;2023-03-25T03:02:32;14.70;55.60
75927;DHT22;64605;48.296;16.416;2023-03-25T03:04:59;14.70;55.50
75927;DHT22;64605;48.296;16.416;2023-03-25T03:07:31;14.70;55.60
75927;DHT22;64605;48.296;16.416;2023-03-25T03:15:30;14.70;55.70
75927;DHT22;64605;48.296;16.416;2023-03-25T03:20:38;14.70;55.60
75927;DHT22;64605;48.296;16.416;2023-03-25T03:23:24;14.70;55.80
75927;DHT22;64605;48.296;16.416;2023-03-25T03:25:59;14.60;55.60
75927;DHT22;64605;48.296;16.416;2023-03-25T03:29:17;14.50;55.60
75927;DHT22;64605;48.296;16.416;2023-03-25T03:31:28;14.50;56.10
75927;DHT22;64605;48.296;16.416;2023-03-25T03:34:00;14.50;56.20
75927;DHT22;64605;48.296;16.416;2023-03-25T03:36:35;14.50;56.20
75927;DHT22;64605;48.296;16.416;2023-03-25T03:39:35;14.50;56.30
75927;DHT22;64605;48.296;16.416;2023-03-25T03:42:06;14.50;56.60
75927;DHT22;64605;48.296;16.416;2023-03-25T03:44:36;14.50;56.40
75927;DHT22;64605;48.296;16.416;2023-03-25T03:47:13;14.40;56.70
75927;DHT22;64605;48.296;16.416;2023-03-25T03:49:46;14.40;56.70
75927;DHT22;64605;48.296;16.416;2023-03-25T03:52:19;14.40;56.80
75927;DHT22;64605;48.296;16.416;2023-03-25T03:55:03;14.40;56.80
75927;DHT22;64605;48.296;16.416;2023-03-25T03:57:37;14.40;56.90
75927;DHT22;64605;48.296;16.416;2023-03-25T04:00:28;14.30;57.00
75927;DHT22;64605;48.296;16.416;2023-03-25T04:03:04;14.30;57.10
75927;DHT22;64605;48.296;16.416;2023-03-25T04:05:34;14.30;57.00
75927;DHT22;64605;48.296;16.416;2023-03-25T04:08:33;14.30;57.10
75927;DHT22;64605;48.296;16.416;2023-03-25T04:11:04;14.30;57.40
75927;DHT22;64605;48.296;16.416;2023-03-25T04:13:36;14.20;57.30
75927;DHT22;64605;48.296;16.416;2023-03-25T04:16:05;14.20;57.40
75927;DHT22;64605;48.296;16.416;2023-03-25T04:18:31;14.20;57.40
75927;DHT22;64605;48.296;16.416;2023-03-25T04:20:58;14.20;57.50
75927;DHT22;64605;48.296;16.416;2023-03-25T04:23:26;14.20;57.20
75927;DHT22;64605;48.296;16.416;2023-03-25T04:25:54;14.10;57.50
75927;DHT22;64605;48.296;16.416;2023-03-25T04:28:21;14.10;57.80
75927;DHT22;64605;48.296;16.416;2023-03-25T04:30:48;14.10;57.50
75927;DHT22;64605;48.296;16.416;2023-03-25T04:33:21;14.10;57.90
75927;DHT22;64605;48.296;16.416;2023-03-25T04:35:47;14.10;57.80
75927;DHT22;64605;48.296;16.416;2023-03-25T04:38:18;14.10;57.60
75927;DHT22;64605;48.296;16.416;2023-03-25T04:40:45;14.00;57.90
75927;DHT22;64605;48.296;16.416;2023-03-25T04:43:15;14.00;58.00
75927;DHT22;64605;48.296;16.416;2023-03-25T04:45:42;14.00;57.90
75927;DHT22;64605;48.296;16.416;2023-03-25T04:48:28;13.90;58.20
75927;DHT22;64605;48.296;16.416;2023-03-25T04:50:57;13.90;58.30
75927;DHT22;64605;48.296;16.416;2023-03-25T04:53:27;13.90;58.30
75927;DHT22;64605;48.296;16.416;2023-03-25T04:55:53;13.90;58.20
75927;DHT22;64605;48.296;16.416;2023-03-25T04:58:19;14.00;58.00
75927;DHT22;64605;48.296;16.416;2023-03-25T05:00:47;14.00;58.40
75927;DHT22;64605;48.296;16.416;2023-03-25T05:03:15;14.00;58.10
75927;DHT22;64605;48.296;16.416;2023-03-25T05:05:41;14.00;58.10
75927;DHT22;64605;48.296;16.416;2023-03-25T05:08:07;13.90;58.30
75927;DHT22;64605;48.296;16.416;2023-03-25T05:10:33;14.00;58.40
75927;DHT22;64605;48.296;16.416;2023-03-25T05:13:03;14.00;58.30
75927;DHT22;64605;48.296;16.416;2023-03-25T05:15:30;13.90;58.20
75927;DHT22;64605;48.296;16.416;2023-03-25T05:17:59;13.90;58.30
75927;DHT22;64605;48.296;16.416;2023-03-25T05:20:26;13.90;58.30
75927;DHT22;64605;48.296;16.416;2023-03-25T05:22:52;13.90;58.40
75927;DHT22;64605;48.296;16.416;2023-03-25T05:25:22;13.80;58.30
75927;DHT22;64605;48.296;16.416;2023-03-25T05:27:47;13.80;58.50
75927;DHT22;64605;48.296;16.416;2023-03-25T05:30:13;13.80;58.60
75927;DHT22;64605;48.296;16.416;2023-03-25T05:32:40;13.80;58.70
75927;DHT22;64605;48.296;16.416;2023-03-25T05:35:07;13.90;58.90
75927;DHT22;64605;48.296;16.416;2023-03-25T05:37:32;13.90;58.80
75927;DHT22;64605;48.296;16.416;2023-03-25T05:39:58;13.80;58.50
75927;DHT22;64605;48.296;16.416;2023-03-25T05:42:24;13.90;58.60
75927;DHT22;64605;48.296;16.416;2023-03-25T05:44:51;14.00;58.60
75927;DHT22;64605;48.296;16.416;2023-03-25T05:47:23;14.00;58.30
75927;DHT22;64605;48.296;16.416;2023-03-25T05:49:51;14.00;59.10
75927;DHT22;64605;48.296;16.416;2023-03-25T05:52:19;14.10;57.90
75927;DHT22;64605;48.296;16.416;2023-03-25T05:54:45;14.20;57.90
75927;DHT22;64605;48.296;16.416;2023-03-25T05:57:14;14.30;56.80
75927;DHT22;64605;48.296;16.416;2023-03-25T05:59:40;14.40;56.40
75927;DHT22;64605;48.296;16.416;2023-03-25T06:02:07;14.40;56.40
75927;DHT22;64605;48.296;16.416;2023-03-25T06:04:36;14.40;55.90
75927;DHT22;64605;48.296;16.416;2023-03-25T06:07:09;14.40;55.70
75927;DHT22;64605;48.296;16.416;2023-03-25T06:09:42;14.50;55.70
75927;DHT22;64605;48.296;16.416;2023-03-25T06:12:19;14.50;55.90
75927;DHT22;64605;48.296;16.416;2023-03-25T06:14:48;14.50;55.50
75927;DHT22;64605;48.296;16.416;2023-03-25T06:17:19;14.60;55.60
75927;DHT22;64605;48.296;16.416;2023-03-25T06:19:50;14.60;55.60
75927;DHT22;64605;48.296;16.416;2023-03-25T06:22:16;14.60;55.20
75927;DHT22;64605;48.296;16.416;2023-03-25T06:24:45;14.70;55.40
75927;DHT22;64605;48.296;16.416;2023-03-25T06:27:17;14.70;54.80
75927;DHT22;64605;48.296;16.416;2023-03-25T06:29:43;14.80;54.80
75927;DHT22;64605;48.296;16.416;2023-03-25T06:32:13;14.80;54.10
75927;DHT22;64605;48.296;16.416;2023-03-25T06:34:39;14.90;53.80
75927;DHT22;64605;48.296;16.416;2023-03-25T06:37:08;15.00;53.90
75927;DHT22;64605;48.296;16.416;2023-03-25T06:39:34;15.10;53.60
75927;DHT22;64605;48.296;16.416;2023-03-25T06:42:03;15.10;53.10
75927;DHT22;64605;48.296;16.416;2023-03-25T06:44:29;15.10;52.90
75927;DHT22;64605;48.296;16.416;2023-03-25T06:46:55;15.00;52.50
75927;DHT22;64605;48.296;16.416;2023-03-25T06:49:20;15.00;52.80
75927;DHT22;64605;48.296;16.416;2023-03-25T06:51:46;15.00;52.70
75927;DHT22;64605;48.296;16.416;2023-03-25T06:54:13;15.00;52.50
75927;DHT22;64605;48.296;16.416;2023-03-25T06:56:39;15.00;52.70
75927;DHT22;64605;48.296;16.416;2023-03-25T06:59:05;15.00;52.70
75927;DHT22;64605;48.296;16.416;2023-03-25T07:01:31;15.10;52.60
75927;DHT22;64605;48.296;16.416;2023-03-25T07:03:56;15.10;52.60
75927;DHT22;64605;48.296;16.416;2023-03-25T07:06:23;15.20;52.50
75927;DHT22;64605;48.296;16.416;2023-03-25T07:08:49;15.30;52.70
75927;DHT22;64605;48.296;16.416;2023-03-25T07:11:18;15.20;52.00
75927;DHT22;64605;48.296;16.416;2023-03-25T07:13:44;15.30;52.10
75927;DHT22;64605;48.296;16.416;2023-03-25T07:16:10;15.40;51.90
75927;DHT22;64605;48.296;16.416;2023-03-25T07:18:36;15.30;51.10
75927;DHT22;64605;48.296;16.416;2023-03-25T07:21:01;15.30;50.80
75927;DHT22;64605;48.296;16.416;2023-03-25T07:23:27;15.30;50.60
75927;DHT22;64605;48.296;16.416;2023-03-25T07:25:53;15.40;51.20
75927;DHT22;64605;48.296;16.416;2023-03-25T07:28:21;15.50;50.90
75927;DHT22;64605;48.296;16.416;2023-03-25T07:30:47;15.50;50.00
75927;DHT22;64605;48.296;16.416;2023-03-25T07:33:12;15.60;50.30
75927;DHT22;64605;48.296;16.416;2023-03-25T07:35:38;15.60;49.00
75927;DHT22;64605;48.296;16.416;2023-03-25T07:38:04;15.60;49.30
75927;DHT22;64605;48.296;16.416;2023-03-25T07:40:29;15.70;49.30
75927;DHT22;64605;48.296;16.416;2023-03-25T07:42:55;15.60;49.20
75927;DHT22;64605;48.296;16.416;2023-03-25T07:45:20;15.70;48.90
75927;DHT22;64605;48.296;16.416;2023-03-25T07:47:46;15.70;48.00
75927;DHT22;64605;48.296;16.416;2023-03-25T07:50:16;15.70;48.80
75927;DHT22;64605;48.296;16.416;2023-03-25T07:52:42;15.90;48.30
75927;DHT22;64605;48.296;16.416;2023-03-25T07:55:08;16.10;47.90
75927;DHT22;64605;48.296;16.416;2023-03-25T07:57:34;16.30;47.20
75927;DHT22;64605;48.296;16.416;2023-03-25T07:59:59;16.60;46.90
75927;DHT22;64605;48.296;16.416;2023-03-25T08:02:25;17.10;46.60
75927;DHT22;64605;48.296;16.416;2023-03-25T08:04:51;17.40;45.90
75927;DHT22;64605;48.296;16.416;2023-03-25T08:07:19;17.40;43.90
75927;DHT22;64605;48.296;16.416;2023-03-25T08:09:45;17.50;44.00
75927;DHT22;64605;48.296;16.416;2023-03-25T08:12:11;17.40;43.50
75927;DHT22;64605;48.296;16.416;2023-03-25T08:14:36;17.40;42.90
75927;DHT22;64605;48.296;16.416;2023-03-25T08:17:04;17.40;44.00
75927;DHT22;64605;48.296;16.416;2023-03-25T08:19:30;17.30;42.50
75927;DHT22;64605;48.296;16.416;2023-03-25T08:21:56;17.20;43.80
75927;DHT22;64605;48.296;16.416;2023-03-25T08:24:21;17.20;44.00
75927;DHT22;64605;48.296;16.416;2023-03-25T08:26:48;17.10;43.50
75927;DHT22;64605;48.296;16.416;2023-03-25T08:29:14;17.00;43.60
75927;DHT22;64605;48.296;16.416;2023-03-25T08:31:42;16.90;44.20
75927;DHT22;64605;48.296;16.416;2023-03-25T08:34:11;16.90;44.40
75927;DHT22;64605;48.296;16.416;2023-03-25T08:36:37;16.80;44.40
75927;DHT22;64605;48.296;16.416;2023-03-25T08:39:06;16.90;44.60
75927;DHT22;64605;48.296;16.416;2023-03-25T08:41:38;17.00;44.00
75927;DHT22;64605;48.296;16.416;2023-03-25T08:44:05;17.10;44.40
75927;DHT22;64605;48.296;16.416;2023-03-25T08:46:31;17.00;43.30
75927;DHT22;64605;48.296;16.416;2023-03-25T08:48:57;16.90;43.90
75927;DHT22;64605;48.296;16.416;2023-03-25T08:51:23;16.90;42.90
75927;DHT22;64605;48.296;16.416;2023-03-25T08:53:49;17.10;43.00
75927;DHT22;64605;48.296;16.416;2023-03-25T08:56:15;17.20;43.40
75927;DHT22;64605;48.296;16.416;2023-03-25T08:58:40;17.30;42.60
75927;DHT22;64605;48.296;16.416;2023-03-25T09:01:06;17.40;42.60
75927;DHT22;64605;48.296;16.416;2023-03-25T09:03:32;17.50;42.50
75927;DHT22;64605;48.296;16.416;2023-03-25T09:06:06;17.50;41.50
75927;DHT22;64605;48.296;16.416;2023-03-25T09:08:32;17.50;42.20
75927;DHT22;64605;48.296;16.416;2023-03-25T09:10:58;17.50;41.20
75927;DHT22;64605;48.296;16.416;2023-03-25T09:13:24;17.40;41.40
75927;DHT22;64605;48.296;16.416;2023-03-25T09:15:50;17.50;41.40
75927;DHT22;64605;48.296;16.416;2023-03-25T09:18:15;17.50;41.70
75927;DHT22;64605;48.296;16.416;2023-03-25T09:20:41;17.70;41.00
75927;DHT22;64605;48.296;16.416;2023-03-25T09:23:07;17.60;41.40
75927;DHT22;64605;48.296;16.416;2023-03-25T09:25:34;17.70;41.60
75927;DHT22;64605;48.296;16.416;2023-03-25T09:28:00;17.80;41.30
75927;DHT22;64605;48.296;16.416;2023-03-25T09:30:25;18.00;41.00
75927;DHT22;64605;48.296;16.416;2023-03-25T09:32:51;17.90;41.00
75927;DHT22;64605;48.296;16.416;2023-03-25T09:35:17;18.20;40.90
75927;DHT22;64605;48.296;16.416;2023-03-25T09:37:43;18.10;39.70
75927;DHT22;64605;48.296;16.416;2023-03-25T09:40:12;17.80;39.60
75927;DHT22;64605;48.296;16.416;2023-03-25T09:45:43;18.00;39.50
75927;DHT22;64605;48.296;16.416;2023-03-25T09:48:37;17.90;39.70
75927;DHT22;64605;48.296;16.416;2023-03-25T09:51:23;17.90;39.70
75927;DHT22;64605;48.296;16.416;2023-03-25T09:57:10;18.20;39.30
75927;DHT22;64605;48.296;16.416;2023-03-25T09:59:44;18.30;39.40
75927;DHT22;64605;48.296;16.416;2023-03-25T10:16:23;18.60;37.60
75927;DHT22;64605;48.296;16.416;2023-03-25T10:24:31;18.40;36.30
75927;DHT22;64605;48.296;16.416;2023-03-25T10:27:06;18.60;37.30
75927;DHT22;64605;48.296;16.416;2023-03-25T10:29:47;18.70;36.30
75927;DHT22;64605;48.296;16.416;2023-03-25T10:35:03;18.60;36.00
75927;DHT22;64605;48.296;16.416;2023-03-25T10:37:34;18.60;36.60
75927;DHT22;64605;48.296;16.416;2023-03-25T10:40:25;18.60;37.60
75927;DHT22;64605;48.296;16.416;2023-03-25T10:45:42;18.70;36.40
75927;DHT22;64605;48.296;16.416;2023-03-25T10:48:23;18.90;36.90
75927;DHT22;64605;48.296;16.416;2023-03-25T10:51:01;19.00;35.60
75927;DHT22;64605;48.296;16.416;2023-03-25T10:53:28;18.90;34.90
75927;DHT22;64605;48.296;16.416;2023-03-25T10:56:12;18.90;35.10
75927;DHT22;64605;48.296;16.416;2023-03-25T10:58:39;18.90;34.80
75927;DHT22;64605;48.296;16.416;2023-03-25T11:01:17;18.80;35.30
75927;DHT22;64605;48.296;16.416;2023-03-25T11:03:45;19.00;34.10
75927;DHT22;64605;48.296;16.416;2023-03-25T11:06:33;19.00;33.60
75927;DHT22;64605;48.296;16.416;2023-03-25T11:11:51;18.90;33.60
75927;DHT22;64605;48.296;16.416;2023-03-25T11:14:24;19.10;33.90
75927;DHT22;64605;48.296;16.416;2023-03-25T11:17:01;19.20;33.60
75927;DHT22;64605;48.296;16.416;2023-03-25T11:19:51;19.30;33.10
75927;DHT22;64605;48.296;16.416;2023-03-25T11:22:23;19.20;32.80
75927;DHT22;64605;48.296;16.416;2023-03-25T11:24:50;19.30;33.20
75927;DHT22;64605;48.296;16.416;2023-03-25T11:27:22;19.40;33.90
75927;DHT22;64605;48.296;16.416;2023-03-25T11:29:59;19.50;33.70
75927;DHT22;64605;48.296;16.416;2023-03-25T11:32:38;19.30;32.70
75927;DHT22;64605;48.296;16.416;2023-03-25T11:35:18;19.10;32.20
75927;DHT22;64605;48.296;16.416;2023-03-25T11:37:52;19.10;32.60
75927;DHT22;64605;48.296;16.416;2023-03-25T11:40:18;19.20;33.30
75927;DHT22;64605;48.296;16.416;2023-03-25T11:42:50;19.50;33.30
75927;DHT22;64605;48.296;16.416;2023-03-25T11:45:31;19.80;32.20
75927;DHT22;64605;48.296;16.416;2023-03-25T11:47:59;20.00;31.20
75927;DHT22;64605;48.296;16.416;2023-03-25T11:50:28;20.20;31.20
75927;DHT22;64605;48.296;16.416;2023-03-25T11:52:56;20.30;30.20
75927;DHT22;64605;48.296;16.416;2023-03-25T11:55:24;20.20;30.20
75927;DHT22;64605;48.296;16.416;2023-03-25T11:57:53;20.20;30.00
75927;DHT22;64605;48.296;16.416;2023-03-25T12:00:39;20.20;31.20
75927;DHT22;64605;48.296;16.416;2023-03-25T12:05:39;19.90;31.70
75927;DHT22;64605;48.296;16.416;2023-03-25T12:08:15;20.10;31.30
75927;DHT22;64605;48.296;16.416;2023-03-25T12:10:52;20.20;31.10
75927;DHT22;64605;48.296;16.416;2023-03-25T12:22:00;19.80;31.20
75927;DHT22;64605;48.296;16.416;2023-03-25T12:32:46;19.00;35.80
75927;DHT22;64605;48.296;16.416;2023-03-25T12:38:21;19.80;36.70
75927;DHT22;64605;48.296;16.416;2023-03-25T12:41:21;20.30;33.80
75927;DHT22;64605;48.296;16.416;2023-03-25T12:44:02;20.60;31.60
75927;DHT22;64605;48.296;16.416;2023-03-25T12:46:55;20.80;31.90
75927;DHT22;64605;48.296;16.416;2023-03-25T12:52:28;21.20;30.60
75927;DHT22;64605;48.296;16.416;2023-03-25T13:06:15;21.20;30.00
75927;DHT22;64605;48.296;16.416;2023-03-25T13:09:05;21.40;29.90
75927;DHT22;64605;48.296;16.416;2023-03-25T13:11:40;21.50;29.00
75927;DHT22;64605;48.296;16.416;2023-03-25T13:14:16;21.60;28.80
75927;DHT22;64605;48.296;16.416;2023-03-25T13:16:46;21.50;28.70
75927;DHT22;64605;48.296;16.416;2023-03-25T13:19:17;21.40;28.70
75927;DHT22;64605;48.296;16.416;2023-03-25T13:21:52;21.40;29.10
75927;DHT22;64605;48.296;16.416;2023-03-25T13:24:42;21.50;29.20
75927;DHT22;64605;48.296;16.416;2023-03-25T13:27:11;21.50;29.10
75927;DHT22;64605;48.296;16.416;2023-03-25T13:29:48;21.40;29.30
75927;DHT22;64605;48.296;16.416;2023-03-25T13:32:19;21.30;29.30
75927;DHT22;64605;48.296;16.416;2023-03-25T13:35:02;21.20;29.40
75927;DHT22;64605;48.296;16.416;2023-03-25T13:37:35;21.20;29.60
75927;DHT22;64605;48.296;16.416;2023-03-25T13:40:57;21.20;29.10
75927;DHT22;64605;48.296;16.416;2023-03-25T13:45:57;20.80;29.00
75927;DHT22;64605;48.296;16.416;2023-03-25T13:48:46;20.80;29.80
75927;DHT22;64605;48.296;16.416;2023-03-25T13:51:13;21.00;29.60
75927;DHT22;64605;48.296;16.416;2023-03-25T13:53:46;21.00;29.30
75927;DHT22;64605;48.296;16.416;2023-03-25T14:12:58;20.60;29.80
75927;DHT22;64605;48.296;16.416;2023-03-25T14:15:29;20.40;29.50
75927;DHT22;64605;48.296;16.416;2023-03-25T14:17:58;20.20;30.10
75927;DHT22;64605;48.296;16.416;2023-03-25T14:20:38;19.90;30.00
75927;DHT22;64605;48.296;16.416;2023-03-25T14:23:06;19.70;31.00
75927;DHT22;64605;48.296;16.416;2023-03-25T14:25:42;19.50;31.60
75927;DHT22;64605;48.296;16.416;2023-03-25T14:28:15;19.30;31.70
75927;DHT22;64605;48.296;16.416;2023-03-25T14:30:42;19.20;32.20
75927;DHT22;64605;48.296;16.416;2023-03-25T14:33:11;19.20;32.20
75927;DHT22;64605;48.296;16.416;2023-03-25T14:35:44;19.20;32.80
75927;DHT22;64605;48.296;16.416;2023-03-25T14:38:18;19.10;32.90
75927;DHT22;64605;48.296;16.416;2023-03-25T14:40:48;19.00;32.80
75927;DHT22;64605;48.296;16.416;2023-03-25T14:43:56;18.90;33.30
75927;DHT22;64605;48.296;16.416;2023-03-25T14:46:34;18.80;33.30
75927;DHT22;64605;48.296;16.416;2023-03-25T14:54:48;18.50;34.20
75927;DHT22;64605;48.296;16.416;2023-03-25T14:59:36;18.50;33.70
75927;DHT22;64605;48.296;16.416;2023-03-25T15:02:16;18.40;33.20
75927;DHT22;64605;48.296;16.416;2023-03-25T15:04:45;18.30;34.10
75927;DHT22;64605;48.296;16.416;2023-03-25T15:07:17;18.10;34.10
75927;DHT22;64605;48.296;16.416;2023-03-25T15:09:51;18.00;34.00
75927;DHT22;64605;48.296;16.416;2023-03-25T15:12:22;17.80;33.50
75927;DHT22;64605;48.296;16.416;2023-03-25T15:14:50;17.70;33.80
75927;DHT22;64605;48.296;16.416;2023-03-25T15:22:30;17.70;34.10
75927;DHT22;64605;48.296;16.416;2023-03-25T15:24:58;17.80;34.00
75927;DHT22;64605;48.296;16.416;2023-03-25T15:27:54;17.90;34.60
75927;DHT22;64605;48.296;16.416;2023-03-25T15:38:42;17.70;32.70
75927;DHT22;64605;48.296;16.416;2023-03-25T15:41:35;17.60;33.50
75927;DHT22;64605;48.296;16.416;2023-03-25T15:44:34;17.40;33.50
75927;DHT22;64605;48.296;16.416;2023-03-25T15:47:08;17.30;34.10
75927;DHT22;64605;48.296;16.416;2023-03-25T15:55:25;17.40;33.00
75927;DHT22;64605;48.296;16.416;2023-03-25T15:58:02;17.50;32.40
75927;DHT22;64605;48.296;16.416;2023-03-25T16:00:37;17.50;32.40
75927;DHT22;64605;48.296;16.416;2023-03-25T16:03:14;17.60;32.50
75927;DHT22;64605;48.296;16.416;2023-03-25T16:05:48;17.60;32.20
75927;DHT22;64605;48.296;16.416;2023-03-25T16:08:39;17.50;32.00
75927;DHT22;64605;48.296;16.416;2023-03-25T16:13:46;17.20;31.10
75927;DHT22;64605;48.296;16.416;2023-03-25T16:16:14;17.10;31.50
75927;DHT22;64605;48.296;16.416;2023-03-25T16:18:43;17.00;32.10
75927;DHT22;64605;48.296;16.416;2023-03-25T16:21:11;17.00;31.80
75927;DHT22;64605;48.296;16.416;2023-03-25T16:23:37;17.00;31.90
75927;DHT22;64605;48.296;16.416;2023-03-25T16:26:04;17.00;32.20
75927;DHT22;64605;48.296;16.416;2023-03-25T16:28:33;16.90;32.00
75927;DHT22;64605;48.296;16.416;2023-03-25T16:30:59;16.70;33.20
75927;DHT22;64605;48.296;16.416;2023-03-25T16:33:37;16.60;32.50
75927;DHT22;64605;48.296;16.416;2023-03-25T16:36:07;16.50;32.90
75927;DHT22;64605;48.296;16.416;2023-03-25T16:38:33;16.50;33.10
75927;DHT22;64605;48.296;16.416;2023-03-25T16:41:08;16.50;34.70
75927;DHT22;64605;48.296;16.416;2023-03-25T16:43:34;16.40;36.90
75927;DHT22;64605;48.296;16.416;2023-03-25T16:46:02;16.40;39.30
75927;DHT22;64605;48.296;16.416;2023-03-25T16:48:38;16.10;43.80
75927;DHT22;64605;48.296;16.416;2023-03-25T16:51:12;15.80;43.90
75927;DHT22;64605;48.296;16.416;2023-03-25T16:53:39;15.60;44.80
75927;DHT22;64605;48.296;16.416;2023-03-25T16:58:35;15.30;45.40
75927;DHT22;64605;48.296;16.416;2023-03-25T17:01:08;15.20;45.80
75927;DHT22;64605;48.296;16.416;2023-03-25T17:03:40;15.10;47.60
75927;DHT22;64605;48.296;16.416;2023-03-25T17:08:48;14.80;48.10
75927;DHT22;64605;48.296;16.416;2023-03-25T17:11:14;14.70;47.10
75927;DHT22;64605;48.296;16.416;2023-03-25T17:13:41;14.70;46.10
75927;DHT22;64605;48.296;16.416;2023-03-25T17:16:07;14.60;46.50
75927;DHT22;64605;48.296;16.416;2023-03-25T17:18:34;14.50;46.70
75927;DHT22;64605;48.296;16.416;2023-03-25T17:21:01;14.30;45.20
75927;DHT22;64605;48.296;16.416;2023-03-25T17:23:43;14.20;46.10
75927;DHT22;64605;48.296;16.416;2023-03-25T17:26:12;14.10;47.30
75927;DHT22;64605;48.296;16.416;2023-03-25T17:31:38;13.70;54.00
75927;DHT22;64605;48.296;16.416;2023-03-25T17:34:13;13.50;55.30
75927;DHT22;64605;48.296;16.416;2023-03-25T17:36:44;13.30;56.90
75927;DHT22;64605;48.296;16.416;2023-03-25T17:39:21;13.20;56.30
75927;DHT22;64605;48.296;16.416;2023-03-25T17:42:04;13.30;55.90
75927;DHT22;64605;48.296;16.416;2023-03-25T17:44:42;13.30;54.90
75927;DHT22;64605;48.296;16.416;2023-03-25T17:47:14;13.30;54.40
75927;DHT22;64605;48.296;16.416;2023-03-25T17:49:40;13.20;53.70
75927;DHT22;64605;48.296;16.416;2023-03-25T17:52:05;13.20;53.40
75927;DHT22;64605;48.296;16.416;2023-03-25T17:54:33;13.10;53.40
75927;DHT22;64605;48.296;16.416;2023-03-25T17:56:59;13.10;53.10
75927;DHT22;64605;48.296;16.416;2023-03-25T17:59:25;13.10;54.60
75927;DHT22;64605;48.296;16.416;2023-03-25T18:01:51;13.00;54.00
75927;DHT22;64605;48.296;16.416;2023-03-25T18:04:18;12.90;53.50
75927;DHT22;64605;48.296;16.416;2023-03-25T18:06:48;12.90;54.10
75927;DHT22;64605;48.296;16.416;2023-03-25T18:09:20;12.70;55.10
75927;DHT22;64605;48.296;16.416;2023-03-25T18:11:50;12.60;55.70
75927;DHT22;64605;48.296;16.416;2023-03-25T18:14:17;12.50;55.30